sensor_id;sensor_type;location;lat;lon;timestamp;pressure;altitude;pressure_sealevel;temperature;humidity
65659;BME280;60181;53.258;6.932;2024-01-30T00:01:05;102751.65;;;13.37;59.94
65659;BME280;60181;53.258;6.932;2024-01-30T00:05:17;102750.07;;;13.36;60.05
65659;BME280;60181;53.258;6.932;2024-01-30T00:09:29;102749.78;;;13.35;59.99
65659;BME280;60181;53.258;6.932;2024-01-30T00:13:41;102750.63;;;13.35;59.90
65659;BME280;60181;53.258;6.932;2024-01-30T00:17:53;102750.26;;;13.34;59.75
65659;BME280;60181;53.258;6.932;2024-01-30T00:22:05;102748.23;;;13.33;60.25
65659;BME280;60181;53.258;6.932;2024-01-30T00:26:17;102747.80;;;13.32;59.84
65659;BME280;60181;53.258;6.932;2024-01-30T00:30:29;102747.64;;;13.32;60.02
65659;BME280;60181;53.258;6.932;2024-01-30T00:34:41;102746.36;;;13.32;59.85
65659;BME280;60181;53.258;6.932;2024-01-30T00:38:53;102745.17;;;13.30;59.71
65659;BME280;60181;53.258;6.932;2024-01-30T00:43:05;102744.15;;;13.29;59.64
65659;BME280;60181;53.258;6.932;2024-01-30T00:47:17;102742.30;;;13.28;59.58
65659;BME280;60181;53.258;6.932;2024-01-30T00:51:29;102740.81;;;13.27;59.49
65659;BME280;60181;53.258;6.932;2024-01-30T00:55:41;102739.67;;;13.25;59.35
65659;BME280;60181;53.258;6.932;2024-01-30T00:59:53;102738.06;;;13.25;59.34
65659;BME280;60181;53.258;6.932;2024-01-30T01:04:05;102733.81;;;13.23;59.24
65659;BME280;60181;53.258;6.932;2024-01-30T01:08:17;102730.71;;;13.22;59.31
65659;BME280;60181;53.258;6.932;2024-01-30T01:12:29;102726.14;;;13.21;59.35
65659;BME280;60181;53.258;6.932;2024-01-30T01:16:41;102720.41;;;13.20;59.40
65659;BME280;60181;53.258;6.932;2024-01-30T01:20:53;102715.87;;;13.20;59.43
65659;BME280;60181;53.258;6.932;2024-01-30T01:25:05;102712.08;;;13.20;59.46
65659;BME280;60181;53.258;6.932;2024-01-30T01:29:17;102708.91;;;13.19;59.50
65659;BME280;60181;53.258;6.932;2024-01-30T01:33:29;102706.43;;;13.19;59.53
65659;BME280;60181;53.258;6.932;2024-01-30T01:37:41;102705.53;;;13.18;59.35
65659;BME280;60181;53.258;6.932;2024-01-30T01:41:53;102703.88;;;13.18;59.36
65659;BME280;60181;53.258;6.932;2024-01-30T01:46:06;102702.86;;;13.18;59.27
65659;BME280;60181;53.258;6.932;2024-01-30T01:50:17;102701.21;;;13.17;59.24
65659;BME280;60181;53.258;6.932;2024-01-30T01:54:29;102700.17;;;13.17;59.20
65659;BME280;60181;53.258;6.932;2024-01-30T01:58:41;102698.68;;;13.16;59.27
65659;BME280;60181;53.258;6.932;2024-01-30T02:02:53;102696.83;;;13.16;59.09
65659;BME280;60181;53.258;6.932;2024-01-30T02:07:05;102696.00;;;13.16;59.14
65659;BME280;60181;53.258;6.932;2024-01-30T02:11:17;102695.42;;;13.16;59.25
65659;BME280;60181;53.258;6.932;2024-01-30T02:15:29;102694.02;;;13.15;59.17
65659;BME280;60181;53.258;6.932;2024-01-30T02:19:41;102692.08;;;13.14;59.20
65659;BME280;60181;53.258;6.932;2024-01-30T02:23:53;102689.65;;;13.14;59.04
65659;BME280;60181;53.258;6.932;2024-01-30T02:28:05;102686.25;;;13.13;58.99
65659;BME280;60181;53.258;6.932;2024-01-30T02:32:17;102683.75;;;13.12;58.86
65659;BME280;60181;53.258;6.932;2024-01-30T02:36:29;102679.80;;;13.12;58.82
65659;BME280;60181;53.258;6.932;2024-01-30T02:40:41;102674.40;;;13.11;58.79
65659;BME280;60181;53.258;6.932;2024-01-30T02:44:53;102668.80;;;13.11;58.83
65659;BME280;60181;53.258;6.932;2024-01-30T02:49:05;102662.38;;;13.11;59.10
65659;BME280;60181;53.258;6.932;2024-01-30T02:53:17;102657.76;;;13.11;58.71
65659;BME280;60181;53.258;6.932;2024-01-30T02:57:29;102653.16;;;13.11;58.95
65659;BME280;60181;53.258;6.932;2024-01-30T03:01:44;102646.92;;;13.11;59.46
65659;BME280;60181;53.258;6.932;2024-01-30T03:05:53;102641.20;;;13.12;58.99
65659;BME280;60181;53.258;6.932;2024-01-30T03:10:05;102639.42;;;13.11;59.17
65659;BME280;60181;53.258;6.932;2024-01-30T03:14:17;102637.65;;;13.10;59.18
65659;BME280;60181;53.258;6.932;2024-01-30T03:18:29;102634.95;;;13.09;59.25
65659;BME280;60181;53.258;6.932;2024-01-30T03:22:41;102632.19;;;13.07;59.38
65659;BME280;60181;53.258;6.932;2024-01-30T03:26:53;102628.52;;;13.06;59.46
65659;BME280;60181;53.258;6.932;2024-01-30T03:31:05;102624.37;;;13.05;59.46
65659;BME280;60181;53.258;6.932;2024-01-30T03:35:18;102618.30;;;13.04;59.56
65659;BME280;60181;53.258;6.932;2024-01-30T03:39:29;102612.10;;;13.04;59.52
65659;BME280;60181;53.258;6.932;2024-01-30T03:43:41;102605.58;;;13.03;59.51
65659;BME280;60181;53.258;6.932;2024-01-30T03:47:53;102601.00;;;13.02;59.55
65659;BME280;60181;53.258;6.932;2024-01-30T03:52:05;102598.05;;;13.02;59.59
65659;BME280;60181;53.258;6.932;2024-01-30T03:56:17;102597.72;;;13.03;59.79
65659;BME280;60181;53.258;6.932;2024-01-30T04:00:29;102595.67;;;13.02;59.61
65659;BME280;60181;53.258;6.932;2024-01-30T04:04:41;102594.35;;;13.02;59.69
65659;BME280;60181;53.258;6.932;2024-01-30T04:08:53;102593.03;;;13.02;59.79
65659;BME280;60181;53.258;6.932;2024-01-30T04:13:05;102592.03;;;13.02;59.79
65659;BME280;60181;53.258;6.932;2024-01-30T04:17:17;102592.11;;;13.02;59.68
65659;BME280;60181;53.258;6.932;2024-01-30T04:21:29;102588.54;;;13.01;59.71
65659;BME280;60181;53.258;6.932;2024-01-30T04:25:41;102581.21;;;13.01;59.71
65659;BME280;60181;53.258;6.932;2024-01-30T04:29:53;102573.39;;;13.01;59.83
65659;BME280;60181;53.258;6.932;2024-01-30T04:34:05;102568.46;;;13.01;59.59
65659;BME280;60181;53.258;6.932;2024-01-30T04:38:17;102562.28;;;13.01;59.56
65659;BME280;60181;53.258;6.932;2024-01-30T04:42:29;102557.39;;;13.00;59.69
65659;BME280;60181;53.258;6.932;2024-01-30T04:46:41;102553.67;;;12.99;59.58
65659;BME280;60181;53.258;6.932;2024-01-30T04:50:53;102554.38;;;12.99;59.65
65659;BME280;60181;53.258;6.932;2024-01-30T04:55:05;102554.83;;;12.99;59.64
65659;BME280;60181;53.258;6.932;2024-01-30T04:59:17;102552.86;;;12.99;59.73
65659;BME280;60181;53.258;6.932;2024-01-30T05:03:29;102549.45;;;12.99;59.70
65659;BME280;60181;53.258;6.932;2024-01-30T05:07:41;102549.54;;;12.99;59.73
65659;BME280;60181;53.258;6.932;2024-01-30T05:11:53;102549.94;;;12.99;59.82
65659;BME280;60181;53.258;6.932;2024-01-30T05:16:05;102552.00;;;12.99;59.79
65659;BME280;60181;53.258;6.932;2024-01-30T05:20:17;102550.44;;;12.99;59.84
65659;BME280;60181;53.258;6.932;2024-01-30T05:24:28;102548.58;;;12.99;59.84
65659;BME280;60181;53.258;6.932;2024-01-30T05:28:40;102544.68;;;12.99;59.98
65659;BME280;60181;53.258;6.932;2024-01-30T05:32:52;102537.51;;;12.99;59.89
65659;BME280;60181;53.258;6.932;2024-01-30T05:37:04;102527.64;;;12.98;59.95
65659;BME280;60181;53.258;6.932;2024-01-30T05:41:16;102517.81;;;12.98;59.96
65659;BME280;60181;53.258;6.932;2024-01-30T05:45:28;102512.29;;;12.97;59.92
65659;BME280;60181;53.258;6.932;2024-01-30T05:49:41;102507.93;;;12.98;59.93
65659;BME280;60181;53.258;6.932;2024-01-30T05:53:52;102505.43;;;12.99;60.38
65659;BME280;60181;53.258;6.932;2024-01-30T05:58:04;102502.44;;;13.00;60.15
65659;BME280;60181;53.258;6.932;2024-01-30T06:02:16;102496.61;;;13.02;60.62
65659;BME280;60181;53.258;6.932;2024-01-30T06:06:28;102493.82;;;13.04;60.63
65659;BME280;60181;53.258;6.932;2024-01-30T06:10:41;102495.20;;;13.05;60.76
65659;BME280;60181;53.258;6.932;2024-01-30T06:14:53;102495.86;;;13.06;60.74
65659;BME280;60181;53.258;6.932;2024-01-30T06:19:04;102500.32;;;13.06;60.72
65659;BME280;60181;53.258;6.932;2024-01-30T06:23:16;102504.25;;;13.05;60.73
65659;BME280;60181;53.258;6.932;2024-01-30T06:27:28;102504.02;;;13.06;61.73
65659;BME280;60181;53.258;6.932;2024-01-30T06:31:40;102502.72;;;13.10;61.29
65659;BME280;60181;53.258;6.932;2024-01-30T06:35:52;102503.44;;;13.13;61.26
65659;BME280;60181;53.258;6.932;2024-01-30T06:40:05;102504.04;;;13.16;61.05
65659;BME280;60181;53.258;6.932;2024-01-30T06:44:16;102502.58;;;13.18;60.91
65659;BME280;60181;53.258;6.932;2024-01-30T06:48:28;102500.77;;;13.20;60.80
65659;BME280;60181;53.258;6.932;2024-01-30T06:52:40;102497.53;;;13.21;60.89
65659;BME280;60181;53.258;6.932;2024-01-30T06:56:52;102496.13;;;13.25;61.03
65659;BME280;60181;53.258;6.932;2024-01-30T07:01:04;102493.91;;;13.27;61.01
65659;BME280;60181;53.258;6.932;2024-01-30T07:05:17;102493.40;;;13.28;61.02
65659;BME280;60181;53.258;6.932;2024-01-30T07:09:28;102493.26;;;13.28;60.99
65659;BME280;60181;53.258;6.932;2024-01-30T07:13:40;102493.85;;;13.29;60.96
65659;BME280;60181;53.258;6.932;2024-01-30T07:17:52;102492.86;;;13.29;60.91
65659;BME280;60181;53.258;6.932;2024-01-30T07:22:04;102490.01;;;13.29;60.85
65659;BME280;60181;53.258;6.932;2024-01-30T07:26:16;102487.55;;;13.29;60.84
65659;BME280;60181;53.258;6.932;2024-01-30T07:30:28;102484.75;;;13.29;60.82
65659;BME280;60181;53.258;6.932;2024-01-30T07:34:40;102483.85;;;13.30;60.83
65659;BME280;60181;53.258;6.932;2024-01-30T07:38:52;102485.58;;;13.30;60.81
65659;BME280;60181;53.258;6.932;2024-01-30T07:43:04;102486.17;;;13.30;60.81
65659;BME280;60181;53.258;6.932;2024-01-30T07:47:16;102489.21;;;13.30;60.80
65659;BME280;60181;53.258;6.932;2024-01-30T07:51:28;102487.73;;;13.30;60.77
65659;BME280;60181;53.258;6.932;2024-01-30T07:55:40;102492.63;;;13.31;60.79
65659;BME280;60181;53.258;6.932;2024-01-30T07:59:52;102497.64;;;13.31;60.83
65659;BME280;60181;53.258;6.932;2024-01-30T08:04:04;102500.11;;;13.31;60.80
65659;BME280;60181;53.258;6.932;2024-01-30T08:08:16;102502.25;;;13.31;60.76
65659;BME280;60181;53.258;6.932;2024-01-30T08:12:28;102503.42;;;13.32;60.80
65659;BME280;60181;53.258;6.932;2024-01-30T08:16:40;102503.58;;;13.32;61.14
65659;BME280;60181;53.258;6.932;2024-01-30T08:20:52;102500.87;;;13.33;61.16
65659;BME280;60181;53.258;6.932;2024-01-30T08:25:05;102503.15;;;13.35;61.30
65659;BME280;60181;53.258;6.932;2024-01-30T08:29:16;102505.42;;;13.36;61.21
65659;BME280;60181;53.258;6.932;2024-01-30T08:33:28;102508.67;;;13.36;61.05
65659;BME280;60181;53.258;6.932;2024-01-30T08:37:40;102509.78;;;13.37;61.00
65659;BME280;60181;53.258;6.932;2024-01-30T08:41:52;102509.62;;;13.38;60.99
65659;BME280;60181;53.258;6.932;2024-01-30T08:46:04;102513.71;;;13.39;61.02
65659;BME280;60181;53.258;6.932;2024-01-30T08:50:16;102518.24;;;13.39;60.94
65659;BME280;60181;53.258;6.932;2024-01-30T08:54:28;102521.45;;;13.40;60.93
65659;BME280;60181;53.258;6.932;2024-01-30T08:58:40;102525.28;;;13.41;60.95
65659;BME280;60181;53.258;6.932;2024-01-30T09:02:52;102529.03;;;13.43;60.89
65659;BME280;60181;53.258;6.932;2024-01-30T09:07:04;102531.02;;;13.44;60.89
65659;BME280;60181;53.258;6.932;2024-01-30T09:11:16;102534.19;;;13.46;60.92
65659;BME280;60181;53.258;6.932;2024-01-30T09:15:28;102533.91;;;13.47;60.92
65659;BME280;60181;53.258;6.932;2024-01-30T09:19:40;102531.98;;;13.48;60.93
65659;BME280;60181;53.258;6.932;2024-01-30T09:23:54;102533.84;;;13.49;60.89
65659;BME280;60181;53.258;6.932;2024-01-30T09:28:05;102536.62;;;13.50;60.89
65659;BME280;60181;53.258;6.932;2024-01-30T09:32:16;102540.66;;;13.52;60.91
65659;BME280;60181;53.258;6.932;2024-01-30T09:36:28;102542.40;;;13.53;60.99
65659;BME280;60181;53.258;6.932;2024-01-30T09:40:40;102543.85;;;13.54;61.05
65659;BME280;60181;53.258;6.932;2024-01-30T09:44:52;102546.26;;;13.54;61.03
65659;BME280;60181;53.258;6.932;2024-01-30T09:49:04;102547.89;;;13.56;61.45
65659;BME280;60181;53.258;6.932;2024-01-30T09:53:16;102547.69;;;13.57;61.25
65659;BME280;60181;53.258;6.932;2024-01-30T09:57:28;102547.90;;;13.58;61.21
65659;BME280;60181;53.258;6.932;2024-01-30T10:01:40;102548.77;;;13.59;61.25
65659;BME280;60181;53.258;6.932;2024-01-30T10:05:52;102548.94;;;13.59;61.25
65659;BME280;60181;53.258;6.932;2024-01-30T10:10:05;102547.30;;;13.61;61.19
65659;BME280;60181;53.258;6.932;2024-01-30T10:14:16;102546.11;;;13.62;61.17
65659;BME280;60181;53.258;6.932;2024-01-30T10:18:28;102545.67;;;13.64;61.18
65659;BME280;60181;53.258;6.932;2024-01-30T10:22:40;102545.97;;;13.65;61.21
65659;BME280;60181;53.258;6.932;2024-01-30T10:26:55;102546.17;;;13.65;61.32
65659;BME280;60181;53.258;6.932;2024-01-30T10:31:04;102545.52;;;13.66;61.41
65659;BME280;60181;53.258;6.932;2024-01-30T10:35:16;102543.21;;;13.66;61.35
65659;BME280;60181;53.258;6.932;2024-01-30T10:39:29;102543.35;;;13.67;61.33
65659;BME280;60181;53.258;6.932;2024-01-30T10:43:40;102542.76;;;13.67;61.29
65659;BME280;60181;53.258;6.932;2024-01-30T10:47:53;102543.40;;;13.68;61.31
65659;BME280;60181;53.258;6.932;2024-01-30T10:52:05;102543.93;;;13.69;61.32
65659;BME280;60181;53.258;6.932;2024-01-30T10:56:16;102544.06;;;13.70;61.30
65659;BME280;60181;53.258;6.932;2024-01-30T11:00:28;102544.54;;;13.70;61.39
65659;BME280;60181;53.258;6.932;2024-01-30T11:04:40;102544.07;;;13.70;61.47
65659;BME280;60181;53.258;6.932;2024-01-30T11:09:02;102545.13;;;13.70;61.71
65659;BME280;60181;53.258;6.932;2024-01-30T11:13:10;102547.34;;;13.70;61.66
65659;BME280;60181;53.258;6.932;2024-01-30T11:17:16;102548.39;;;13.69;61.59
65659;BME280;60181;53.258;6.932;2024-01-30T11:21:28;102547.97;;;13.69;61.62
65659;BME280;60181;53.258;6.932;2024-01-30T11:25:40;102546.24;;;13.69;61.49
65659;BME280;60181;53.258;6.932;2024-01-30T11:29:52;102544.71;;;13.70;61.56
65659;BME280;60181;53.258;6.932;2024-01-30T11:34:04;102542.58;;;13.70;61.54
65659;BME280;60181;53.258;6.932;2024-01-30T11:38:16;102541.26;;;13.71;61.56
65659;BME280;60181;53.258;6.932;2024-01-30T11:42:28;102540.31;;;13.71;61.64
65659;BME280;60181;53.258;6.932;2024-01-30T11:46:40;102539.50;;;13.72;61.63
65659;BME280;60181;53.258;6.932;2024-01-30T11:50:52;102538.72;;;13.72;61.62
65659;BME280;60181;53.258;6.932;2024-01-30T11:55:04;102537.24;;;13.73;61.67
65659;BME280;60181;53.258;6.932;2024-01-30T11:59:16;102538.27;;;13.73;61.70
65659;BME280;60181;53.258;6.932;2024-01-30T12:03:28;102537.45;;;13.74;61.68
65659;BME280;60181;53.258;6.932;2024-01-30T12:07:40;102536.34;;;13.74;61.69
65659;BME280;60181;53.258;6.932;2024-01-30T12:11:52;102535.19;;;13.75;61.71
65659;BME280;60181;53.258;6.932;2024-01-30T12:16:04;102535.06;;;13.75;61.73
65659;BME280;60181;53.258;6.932;2024-01-30T12:20:19;102537.57;;;13.76;61.76
65659;BME280;60181;53.258;6.932;2024-01-30T12:24:28;102540.56;;;13.77;61.72
65659;BME280;60181;53.258;6.932;2024-01-30T12:28:49;102542.33;;;13.78;61.72
65659;BME280;60181;53.258;6.932;2024-01-30T12:32:52;102545.59;;;13.79;61.81
65659;BME280;60181;53.258;6.932;2024-01-30T12:37:04;102547.58;;;13.79;61.75
65659;BME280;60181;53.258;6.932;2024-01-30T12:41:16;102549.51;;;13.80;61.69
65659;BME280;60181;53.258;6.932;2024-01-30T12:45:28;102551.37;;;13.81;61.75
65659;BME280;60181;53.258;6.932;2024-01-30T12:49:40;102553.06;;;13.83;61.67
65659;BME280;60181;53.258;6.932;2024-01-30T12:53:52;102555.22;;;13.85;61.56
65659;BME280;60181;53.258;6.932;2024-01-30T12:58:04;102555.59;;;13.87;62.09
65659;BME280;60181;53.258;6.932;2024-01-30T13:02:16;102555.00;;;13.91;63.20
65659;BME280;60181;53.258;6.932;2024-01-30T13:06:28;102553.37;;;13.94;62.82
65659;BME280;60181;53.258;6.932;2024-01-30T13:10:40;102552.72;;;13.96;62.44
65659;BME280;60181;53.258;6.932;2024-01-30T13:14:52;102550.05;;;13.97;62.30
65659;BME280;60181;53.258;6.932;2024-01-30T13:19:04;102547.29;;;13.98;62.38
65659;BME280;60181;53.258;6.932;2024-01-30T13:23:16;102545.23;;;13.97;62.38
65659;BME280;60181;53.258;6.932;2024-01-30T13:27:28;102543.37;;;13.97;62.29
65659;BME280;60181;53.258;6.932;2024-01-30T13:31:40;102542.22;;;13.97;62.28
65659;BME280;60181;53.258;6.932;2024-01-30T13:35:52;102540.98;;;13.97;62.31
65659;BME280;60181;53.258;6.932;2024-01-30T13:40:04;102541.24;;;13.97;62.21
65659;BME280;60181;53.258;6.932;2024-01-30T13:44:16;102541.87;;;14.01;65.46
65659;BME280;60181;53.258;6.932;2024-01-30T13:48:28;102542.15;;;14.10;65.31
65659;BME280;60181;53.258;6.932;2024-01-30T13:52:40;102541.69;;;14.18;64.93
65659;BME280;60181;53.258;6.932;2024-01-30T13:56:52;102541.80;;;14.23;64.66
65659;BME280;60181;53.258;6.932;2024-01-30T14:01:04;102543.24;;;14.25;64.36
65659;BME280;60181;53.258;6.932;2024-01-30T14:05:16;102544.52;;;14.27;64.25
65659;BME280;60181;53.258;6.932;2024-01-30T14:09:28;102545.35;;;14.27;64.07
65659;BME280;60181;53.258;6.932;2024-01-30T14:13:40;102546.42;;;14.27;63.99
65659;BME280;60181;53.258;6.932;2024-01-30T14:17:52;102548.32;;;14.27;63.94
65659;BME280;60181;53.258;6.932;2024-01-30T14:22:04;102550.79;;;14.27;63.90
65659;BME280;60181;53.258;6.932;2024-01-30T14:26:16;102553.02;;;14.27;63.86
65659;BME280;60181;53.258;6.932;2024-01-30T14:30:28;102554.65;;;14.26;63.85
65659;BME280;60181;53.258;6.932;2024-01-30T14:34:40;102557.34;;;14.26;63.79
65659;BME280;60181;53.258;6.932;2024-01-30T14:38:52;102559.56;;;14.26;63.81
65659;BME280;60181;53.258;6.932;2024-01-30T14:43:04;102562.77;;;14.26;63.82
65659;BME280;60181;53.258;6.932;2024-01-30T14:47:16;102565.98;;;14.26;63.86
65659;BME280;60181;53.258;6.932;2024-01-30T14:51:28;102568.91;;;14.27;64.12
65659;BME280;60181;53.258;6.932;2024-01-30T14:55:40;102572.96;;;14.29;65.11
65659;BME280;60181;53.258;6.932;2024-01-30T14:59:52;102577.16;;;14.37;65.05
65659;BME280;60181;53.258;6.932;2024-01-30T15:04:04;102578.47;;;14.47;64.60
65659;BME280;60181;53.258;6.932;2024-01-30T15:08:16;102580.40;;;14.58;64.23
65659;BME280;60181;53.258;6.932;2024-01-30T15:12:28;102581.07;;;14.68;64.09
65659;BME280;60181;53.258;6.932;2024-01-30T15:16:40;102582.78;;;14.78;63.85
65659;BME280;60181;53.258;6.932;2024-01-30T15:20:52;102585.72;;;14.84;64.06
65659;BME280;60181;53.258;6.932;2024-01-30T15:25:04;102589.51;;;14.84;64.18
65659;BME280;60181;53.258;6.932;2024-01-30T15:29:16;102594.37;;;14.82;64.34
65659;BME280;60181;53.258;6.932;2024-01-30T15:33:28;102599.07;;;14.79;64.10
65659;BME280;60181;53.258;6.932;2024-01-30T15:37:40;102602.70;;;14.75;64.26
65659;BME280;60181;53.258;6.932;2024-01-30T15:41:52;102606.29;;;14.72;64.24
65659;BME280;60181;53.258;6.932;2024-01-30T15:46:04;102608.78;;;14.68;64.09
65659;BME280;60181;53.258;6.932;2024-01-30T15:50:16;102611.50;;;14.64;64.15
65659;BME280;60181;53.258;6.932;2024-01-30T15:54:28;102615.70;;;14.61;63.95
65659;BME280;60181;53.258;6.932;2024-01-30T15:58:40;102619.36;;;14.57;63.99
65659;BME280;60181;53.258;6.932;2024-01-30T16:02:52;102622.61;;;14.55;64.15
65659;BME280;60181;53.258;6.932;2024-01-30T16:07:04;102626.60;;;14.55;63.97
65659;BME280;60181;53.258;6.932;2024-01-30T16:11:16;102632.08;;;14.54;63.75
65659;BME280;60181;53.258;6.932;2024-01-30T16:15:28;102635.17;;;14.53;63.83
65659;BME280;60181;53.258;6.932;2024-01-30T16:19:40;102637.35;;;14.51;63.84
65659;BME280;60181;53.258;6.932;2024-01-30T16:23:52;102640.11;;;14.50;63.87
65659;BME280;60181;53.258;6.932;2024-01-30T16:28:04;102642.46;;;14.49;63.87
65659;BME280;60181;53.258;6.932;2024-01-30T16:32:16;102645.30;;;14.48;63.85
65659;BME280;60181;53.258;6.932;2024-01-30T16:36:28;102649.33;;;14.48;63.91
65659;BME280;60181;53.258;6.932;2024-01-30T16:40:40;102653.91;;;14.47;63.90
65659;BME280;60181;53.258;6.932;2024-01-30T16:44:52;102659.55;;;14.46;63.87
65659;BME280;60181;53.258;6.932;2024-01-30T16:49:04;102664.45;;;14.45;63.88
65659;BME280;60181;53.258;6.932;2024-01-30T16:53:16;102669.93;;;14.44;63.91
65659;BME280;60181;53.258;6.932;2024-01-30T16:57:28;102675.62;;;14.43;63.92
65659;BME280;60181;53.258;6.932;2024-01-30T17:01:40;102680.19;;;14.43;63.90
65659;BME280;60181;53.258;6.932;2024-01-30T17:05:52;102684.85;;;14.42;63.94
65659;BME280;60181;53.258;6.932;2024-01-30T17:10:04;102690.03;;;14.41;63.93
65659;BME280;60181;53.258;6.932;2024-01-30T17:14:16;102695.85;;;14.40;63.92
65659;BME280;60181;53.258;6.932;2024-01-30T17:18:28;102702.31;;;14.40;63.95
65659;BME280;60181;53.258;6.932;2024-01-30T17:22:39;102707.82;;;14.39;63.91
65659;BME280;60181;53.258;6.932;2024-01-30T17:26:51;102713.72;;;14.38;63.95
65659;BME280;60181;53.258;6.932;2024-01-30T17:31:03;102720.97;;;14.38;63.94
65659;BME280;60181;53.258;6.932;2024-01-30T17:35:16;102728.69;;;14.37;63.88
65659;BME280;60181;53.258;6.932;2024-01-30T17:39:27;102736.43;;;14.37;63.93
65659;BME280;60181;53.258;6.932;2024-01-30T17:43:39;102743.97;;;14.36;63.90
65659;BME280;60181;53.258;6.932;2024-01-30T17:47:51;102752.71;;;14.36;63.88
65659;BME280;60181;53.258;6.932;2024-01-30T17:52:04;102760.45;;;14.36;63.87
65659;BME280;60181;53.258;6.932;2024-01-30T17:56:16;102768.13;;;14.36;63.91
65659;BME280;60181;53.258;6.932;2024-01-30T18:00:27;102776.70;;;14.36;63.93
65659;BME280;60181;53.258;6.932;2024-01-30T18:04:39;102784.94;;;14.36;63.89
65659;BME280;60181;53.258;6.932;2024-01-30T18:08:51;102793.19;;;14.36;63.93
65659;BME280;60181;53.258;6.932;2024-01-30T18:13:03;102800.68;;;14.36;64.38
65659;BME280;60181;53.258;6.932;2024-01-30T18:17:15;102808.56;;;14.37;64.19
65659;BME280;60181;53.258;6.932;2024-01-30T18:21:27;102816.61;;;14.38;64.06
65659;BME280;60181;53.258;6.932;2024-01-30T18:25:39;102824.83;;;14.41;65.77
65659;BME280;60181;53.258;6.932;2024-01-30T18:29:51;102833.75;;;14.44;65.17
65659;BME280;60181;53.258;6.932;2024-01-30T18:34:03;102843.01;;;14.46;64.58
65659;BME280;60181;53.258;6.932;2024-01-30T18:38:15;102850.44;;;14.46;64.59
65659;BME280;60181;53.258;6.932;2024-01-30T18:42:27;102857.28;;;14.46;64.50
65659;BME280;60181;53.258;6.932;2024-01-30T18:46:39;102863.95;;;14.46;64.52
65659;BME280;60181;53.258;6.932;2024-01-30T18:50:51;102869.89;;;14.46;64.41
65659;BME280;60181;53.258;6.932;2024-01-30T18:55:04;102875.54;;;14.45;64.34
65659;BME280;60181;53.258;6.932;2024-01-30T18:59:15;102879.98;;;14.45;64.26
65659;BME280;60181;53.258;6.932;2024-01-30T19:03:27;102885.50;;;14.44;64.23
65659;BME280;60181;53.258;6.932;2024-01-30T19:07:39;102891.89;;;14.44;64.20
65659;BME280;60181;53.258;6.932;2024-01-30T19:11:51;102898.14;;;14.43;64.16
65659;BME280;60181;53.258;6.932;2024-01-30T19:16:03;102904.70;;;14.43;64.16
65659;BME280;60181;53.258;6.932;2024-01-30T19:20:15;102912.61;;;14.42;64.19
65659;BME280;60181;53.258;6.932;2024-01-30T19:24:27;102920.81;;;14.42;64.12
65659;BME280;60181;53.258;6.932;2024-01-30T19:28:39;102929.31;;;14.42;64.18
65659;BME280;60181;53.258;6.932;2024-01-30T19:32:51;102937.12;;;14.41;64.12
65659;BME280;60181;53.258;6.932;2024-01-30T19:37:03;102946.73;;;14.41;64.17
65659;BME280;60181;53.258;6.932;2024-01-30T19:41:15;102955.37;;;14.40;64.17
65659;BME280;60181;53.258;6.932;2024-01-30T19:45:27;102965.11;;;14.40;64.10
65659;BME280;60181;53.258;6.932;2024-01-30T19:49:40;102974.06;;;14.40;64.07
65659;BME280;60181;53.258;6.932;2024-01-30T19:53:51;102984.45;;;14.40;64.10
65659;BME280;60181;53.258;6.932;2024-01-30T19:58:03;102994.02;;;14.40;64.11
65659;BME280;60181;53.258;6.932;2024-01-30T20:02:15;103001.10;;;14.40;64.04
65659;BME280;60181;53.258;6.932;2024-01-30T20:06:27;103006.37;;;14.40;64.12
65659;BME280;60181;53.258;6.932;2024-01-30T20:10:39;103012.93;;;14.40;64.43
65659;BME280;60181;53.258;6.932;2024-01-30T20:14:51;103020.69;;;14.44;66.27
65659;BME280;60181;53.258;6.932;2024-01-30T20:19:04;103028.59;;;14.47;65.29
65659;BME280;60181;53.258;6.932;2024-01-30T20:23:15;103035.74;;;14.49;64.88
65659;BME280;60181;53.258;6.932;2024-01-30T20:27:27;103043.53;;;14.49;65.03
65659;BME280;60181;53.258;6.932;2024-01-30T20:31:39;103051.53;;;14.49;65.08
65659;BME280;60181;53.258;6.932;2024-01-30T20:35:51;103060.82;;;14.49;65.12
65659;BME280;60181;53.258;6.932;2024-01-30T20:40:04;103070.36;;;14.48;65.06
65659;BME280;60181;53.258;6.932;2024-01-30T20:44:15;103080.58;;;14.48;65.07
65659;BME280;60181;53.258;6.932;2024-01-30T20:48:27;103091.42;;;14.47;65.01
65659;BME280;60181;53.258;6.932;2024-01-30T20:52:39;103103.05;;;14.47;64.93
65659;BME280;60181;53.258;6.932;2024-01-30T20:56:51;103112.16;;;14.46;64.93
65659;BME280;60181;53.258;6.932;2024-01-30T21:01:03;103120.07;;;14.46;64.91
65659;BME280;60181;53.258;6.932;2024-01-30T21:05:15;103126.45;;;14.45;64.86
65659;BME280;60181;53.258;6.932;2024-01-30T21:09:27;103134.19;;;14.44;64.85
65659;BME280;60181;53.258;6.932;2024-01-30T21:13:39;103140.86;;;14.44;64.85
65659;BME280;60181;53.258;6.932;2024-01-30T21:17:51;103146.42;;;14.44;64.72
65659;BME280;60181;53.258;6.932;2024-01-30T21:22:03;103151.29;;;14.43;64.68
65659;BME280;60181;53.258;6.932;2024-01-30T21:26:15;103157.35;;;14.43;64.69
65659;BME280;60181;53.258;6.932;2024-01-30T21:30:27;103162.61;;;14.42;64.78
65659;BME280;60181;53.258;6.932;2024-01-30T21:34:39;103167.31;;;14.42;64.65
65659;BME280;60181;53.258;6.932;2024-01-30T21:38:51;103171.89;;;14.42;64.69
65659;BME280;60181;53.258;6.932;2024-01-30T21:43:03;103177.82;;;14.42;64.64
65659;BME280;60181;53.258;6.932;2024-01-30T21:47:15;103182.85;;;14.41;64.57
65659;BME280;60181;53.258;6.932;2024-01-30T21:51:27;103187.21;;;14.41;64.62
65659;BME280;60181;53.258;6.932;2024-01-30T21:55:39;103192.24;;;14.41;64.47